createdAt,value
2019-02-16T00:00:36.453Z,27.60
2019-02-16T00:03:05.657Z,29.52
2019-02-16T00:05:34.466Z,25.23
2019-02-16T00:08:03.115Z,21.53
2019-02-16T00:10:32.105Z,28.53
2019-02-16T00:13:00.777Z,28.40
2019-02-16T00:15:29.537Z,33.80
2019-02-16T00:17:58.412Z,32.97
2019-02-16T00:20:27.144Z,31.42
2019-02-16T00:22:55.802Z,27.43
2019-02-16T00:25:24.588Z,31.47
2019-02-16T00:27:53.366Z,30.60
2019-02-16T00:30:22.082Z,29.53
2019-02-16T00:32:51.097Z,29.93
2019-02-16T00:35:19.840Z,37.97
2019-02-16T00:37:48.625Z,38.90
2019-02-16T00:40:17.397Z,37.28
2019-02-16T00:42:46.149Z,39.23
2019-02-16T00:45:14.933Z,27.73
2019-02-16T00:47:43.724Z,29.90
2019-02-16T00:50:12.462Z,27.43
2019-02-16T00:52:41.247Z,27.63
2019-02-16T00:55:10.016Z,27.20
2019-02-16T00:57:53.391Z,27.63
2019-02-16T01:00:23.293Z,31.37
2019-02-16T01:02:51.963Z,31.13
2019-02-16T01:05:20.764Z,37.05
2019-02-16T01:07:49.546Z,32.60
2019-02-16T01:10:18.297Z,24.02
2019-02-16T01:12:46.932Z,26.07
2019-02-16T01:15:15.640Z,21.80
2019-02-16T01:17:44.370Z,21.90
2019-02-16T01:20:13.230Z,25.80
2019-02-16T01:22:41.992Z,33.47
2019-02-16T01:25:10.876Z,27.40
2019-02-16T01:27:39.689Z,24.23
2019-02-16T01:30:10.230Z,22.70
2019-02-16T01:32:39.001Z,23.25
2019-02-16T01:35:08.364Z,20.77
2019-02-16T01:37:37.075Z,17.40
2019-02-16T01:40:08.390Z,16.40
2019-02-16T01:42:37.176Z,18.43
2019-02-16T01:45:07.905Z,13.83
2019-02-16T01:47:36.722Z,12.10
2019-02-16T01:50:07.503Z,18.53
2019-02-16T01:52:36.222Z,13.10
2019-02-16T01:55:07.418Z,11.75
2019-02-16T01:57:36.066Z,9.67
2019-02-16T02:00:07.522Z,12.28
2019-02-16T02:02:36.240Z,8.57
2019-02-16T02:05:05.637Z,11.00
2019-02-16T02:07:34.467Z,12.40
2019-02-16T02:10:03.224Z,9.00
2019-02-16T02:12:31.924Z,9.55
2019-02-16T02:15:00.599Z,7.17
2019-02-16T02:17:29.363Z,12.60
2019-02-16T02:19:58.051Z,13.40
2019-02-16T02:22:26.827Z,11.13
2019-02-16T02:24:55.625Z,9.80
2019-02-16T02:27:24.402Z,8.80
2019-02-16T02:29:53.187Z,7.17
2019-02-16T02:32:21.887Z,7.42
2019-02-16T02:34:50.628Z,11.07
2019-02-16T02:37:19.409Z,8.03
2019-02-16T02:39:48.108Z,6.95
2019-02-16T02:42:16.958Z,9.13
2019-02-16T02:44:45.708Z,11.30
2019-02-16T02:47:14.416Z,15.10
2019-02-16T02:49:43.226Z,9.60
2019-02-16T02:52:12.017Z,7.60
2019-02-16T02:54:40.661Z,14.30
2019-02-16T02:57:09.999Z,9.55
2019-02-16T02:59:38.738Z,10.03
2019-02-16T03:02:07.460Z,12.40
2019-02-16T03:04:36.150Z,11.63
2019-02-16T03:07:05.121Z,10.65
2019-02-16T03:09:33.848Z,12.13
2019-02-16T03:12:02.731Z,9.00
2019-02-16T03:14:31.472Z,12.97
2019-02-16T03:17:00.273Z,4.90
2019-02-16T03:19:29.047Z,11.33
2019-02-16T03:22:02.718Z,11.03
2019-02-16T03:24:28.332Z,13.50
2019-02-16T03:27:37.387Z,10.80
2019-02-16T03:30:36.795Z,11.23
2019-02-16T03:33:11.372Z,12.77
2019-02-16T03:35:48.788Z,14.10
2019-02-16T03:38:23.214Z,9.20
2019-02-16T03:40:52.107Z,7.70
2019-02-16T03:43:20.740Z,14.23
2019-02-16T03:45:49.416Z,8.50
2019-02-16T03:48:18.149Z,13.10
2019-02-16T03:50:46.951Z,12.28
2019-02-16T03:53:15.717Z,10.58
2019-02-16T03:55:44.498Z,12.83
2019-02-16T03:58:13.398Z,12.07
2019-02-16T04:00:42.213Z,9.13
2019-02-16T04:03:10.837Z,11.07
2019-02-16T04:05:39.622Z,10.67
2019-02-16T04:08:08.411Z,8.00
2019-02-16T04:10:37.162Z,7.30
2019-02-16T04:13:05.931Z,10.77
2019-02-16T04:15:34.709Z,16.20
2019-02-16T04:18:03.453Z,9.83
2019-02-16T04:20:32.224Z,11.17
2019-02-16T04:23:01.741Z,9.50
2019-02-16T04:25:30.594Z,10.83
2019-02-16T04:27:59.351Z,11.55
2019-02-16T04:30:28.195Z,13.30
2019-02-16T04:32:56.837Z,8.48
2019-02-16T04:35:25.599Z,11.73
2019-02-16T04:37:54.360Z,11.97
2019-02-16T04:40:23.175Z,10.05
2019-02-16T04:42:52.011Z,10.90
2019-02-16T04:45:20.842Z,12.17
2019-02-16T04:47:49.567Z,12.53
2019-02-16T04:50:18.377Z,8.83
2019-02-16T04:52:47.154Z,10.80
2019-02-16T04:55:15.846Z,10.80
2019-02-16T04:57:44.578Z,9.70
2019-02-16T05:00:13.359Z,18.67
2019-02-16T05:02:42.036Z,8.67
2019-02-16T05:05:10.809Z,12.85
2019-02-16T05:07:39.484Z,7.73
2019-02-16T05:10:08.733Z,12.10
2019-02-16T05:12:37.473Z,16.07
2019-02-16T05:15:08.922Z,10.27
2019-02-16T05:17:37.620Z,8.90
2019-02-16T05:20:07.741Z,8.33
2019-02-16T05:22:44.252Z,9.70
2019-02-16T05:25:07.122Z,9.53
2019-02-16T05:27:35.859Z,13.80
2019-02-16T05:30:07.212Z,11.85
2019-02-16T05:32:35.888Z,9.57
2019-02-16T05:35:06.829Z,9.20
2019-02-16T05:37:35.648Z,14.10
2019-02-16T05:40:08.239Z,8.65
2019-02-16T05:42:36.871Z,8.57
2019-02-16T05:45:07.061Z,15.57
2019-02-16T05:47:35.791Z,12.23
2019-02-16T05:50:05.158Z,15.05
2019-02-16T05:52:33.933Z,9.27
2019-02-16T05:56:01.509Z,10.80
2019-02-16T05:57:57.567Z,9.97
2019-02-16T06:00:28.686Z,11.33
2019-02-16T06:02:57.401Z,9.37
2019-02-16T06:05:26.195Z,10.82
2019-02-16T06:07:54.880Z,10.30
2019-02-16T06:10:23.483Z,14.23
2019-02-16T06:12:52.135Z,9.90
2019-02-16T06:15:20.906Z,10.63
2019-02-16T06:17:49.680Z,9.30
2019-02-16T06:20:18.989Z,11.00
2019-02-16T06:22:47.778Z,14.47
2019-02-16T06:25:16.739Z,11.83
2019-02-16T06:27:45.633Z,13.57
2019-02-16T06:30:14.324Z,12.73
2019-02-16T06:32:42.969Z,14.10
2019-02-16T06:35:22.401Z,8.97
2019-02-16T06:37:51.221Z,10.20
2019-02-16T06:40:20.045Z,11.43
2019-02-16T06:42:48.700Z,13.67
2019-02-16T06:45:17.395Z,10.07
2019-02-16T06:47:46.043Z,14.40
2019-02-16T06:50:14.772Z,11.73
2019-02-16T06:52:43.651Z,11.30
2019-02-16T06:55:12.335Z,12.33
2019-02-16T06:57:42.592Z,11.87
2019-02-16T07:00:23.854Z,11.85
2019-02-16T07:02:52.671Z,12.17
2019-02-16T07:05:22.286Z,14.83
2019-02-16T07:07:51.164Z,12.83
2019-02-16T07:10:20.149Z,16.80
2019-02-16T07:12:49.052Z,17.50
2019-02-16T07:15:19.037Z,11.80
2019-02-16T07:17:49.835Z,13.90
2019-02-16T07:20:20.185Z,13.35
2019-02-16T07:22:49.013Z,10.03
2019-02-16T07:25:17.780Z,11.30
2019-02-16T07:27:46.580Z,13.03
2019-02-16T07:30:15.356Z,11.70
2019-02-16T07:32:44.108Z,11.33
2019-02-16T07:35:13.099Z,14.40
2019-02-16T07:37:41.837Z,9.40
2019-02-16T07:40:10.697Z,12.23
2019-02-16T07:42:53.352Z,17.00
2019-02-16T07:45:42.812Z,11.33
2019-02-16T07:48:19.120Z,10.03
2019-02-16T07:50:52.486Z,12.33
2019-02-16T07:53:38.649Z,8.27
2019-02-16T07:56:08.961Z,14.40
2019-02-16T07:58:42.402Z,13.17
2019-02-16T08:01:24.967Z,11.60
2019-02-16T08:03:55.294Z,14.03
2019-02-16T08:06:25.710Z,12.87
2019-02-16T08:09:02.324Z,13.17
2019-02-16T08:11:42.013Z,12.70
2019-02-16T08:14:28.636Z,15.20
2019-02-16T08:16:58.918Z,9.10
2019-02-16T08:19:30.903Z,13.83
2019-02-16T08:22:13.808Z,13.27
2019-02-16T08:24:55.803Z,11.93
2019-02-16T08:27:28.896Z,9.77
2019-02-16T08:29:59.332Z,12.60
2019-02-16T08:32:50.693Z,16.27
2019-02-16T08:35:42.379Z,16.60
2019-02-16T08:38:13.218Z,12.70
2019-02-16T08:40:46.004Z,15.50
2019-02-16T08:43:16.501Z,12.57
2019-02-16T08:45:52.642Z,16.03
2019-02-16T08:48:29.863Z,10.70
2019-02-16T08:51:01.152Z,11.40
2019-02-16T08:53:32.092Z,14.43
2019-02-16T08:56:02.302Z,13.30
2019-02-16T08:58:35.420Z,13.93
2019-02-16T09:01:06.614Z,15.88
2019-02-16T09:03:49.370Z,15.50
2019-02-16T09:06:22.483Z,13.13
2019-02-16T09:08:52.682Z,17.13
2019-02-16T09:11:39.259Z,14.33
2019-02-16T09:14:24.424Z,18.47
2019-02-16T09:17:01.171Z,13.27
2019-02-16T09:19:40.340Z,13.73
2019-02-16T09:22:13.701Z,16.07
2019-02-16T09:24:46.908Z,15.37
2019-02-16T09:27:17.197Z,17.33
2019-02-16T09:29:56.231Z,16.57
2019-02-16T09:32:41.529Z,14.73
2019-02-16T09:35:20.593Z,14.15
2019-02-16T09:37:53.874Z,15.50
2019-02-16T09:40:32.912Z,20.05
2019-02-16T09:43:03.168Z,20.43
2019-02-16T09:45:36.562Z,18.65
2019-02-16T09:48:18.778Z,18.93
2019-02-16T09:50:51.447Z,18.00
2019-02-16T09:53:21.630Z,16.23
2019-02-16T09:56:00.932Z,18.80
2019-02-16T09:58:34.123Z,14.13
2019-02-16T10:01:09.955Z,17.12
2019-02-16T10:03:40.237Z,20.63
2019-02-16T10:06:19.378Z,22.07
2019-02-16T10:09:07.902Z,15.18
2019-02-16T10:11:43.894Z,18.53
2019-02-16T10:14:14.184Z,16.75
2019-02-16T10:16:47.490Z,22.40
2019-02-16T10:19:29.265Z,17.52
2019-02-16T10:22:02.310Z,17.30
2019-02-16T10:24:38.399Z,17.05
2019-02-16T10:27:08.697Z,19.60
2019-02-16T10:29:56.963Z,16.40
2019-02-16T10:32:43.587Z,18.43
2019-02-16T10:35:29.067Z,18.77
2019-02-16T10:38:14.670Z,17.60
2019-02-16T10:41:01.495Z,17.73
2019-02-16T10:43:31.982Z,27.50
2019-02-16T10:46:18.463Z,19.97
2019-02-16T10:48:48.637Z,24.83
2019-02-16T10:51:31.087Z,21.13
2019-02-16T10:54:16.353Z,19.67
2019-02-16T10:56:46.653Z,21.07
2019-02-16T10:59:19.882Z,21.47
2019-02-16T11:01:58.857Z,16.50
2019-02-16T11:04:38.701Z,15.47
2019-02-16T11:07:18.262Z,14.50
2019-02-16T11:09:51.012Z,24.57
2019-02-16T11:12:24.041Z,20.37
2019-02-16T11:14:57.283Z,17.87
2019-02-16T11:17:33.777Z,17.93
2019-02-16T11:20:11.613Z,17.30
2019-02-16T11:22:41.950Z,15.80
2019-02-16T11:25:16.870Z,16.20
2019-02-16T11:27:54.398Z,16.27
2019-02-16T11:30:24.698Z,15.37
2019-02-16T11:32:55.036Z,17.47
2019-02-16T11:35:28.437Z,21.20
2019-02-16T11:37:58.750Z,15.13
2019-02-16T11:40:32.068Z,18.00
2019-02-16T11:43:05.023Z,16.67
2019-02-16T11:45:48.348Z,19.60
2019-02-16T11:48:24.396Z,17.27
2019-02-16T11:50:57.715Z,17.07
2019-02-16T11:53:28.022Z,16.10
2019-02-16T11:56:14.374Z,16.00
2019-02-16T11:58:47.383Z,19.70
2019-02-16T12:01:20.584Z,19.75
2019-02-16T12:04:03.077Z,21.13
2019-02-16T12:06:49.836Z,23.03
2019-02-16T12:09:25.970Z,15.78
2019-02-16T12:11:56.326Z,18.07
2019-02-16T12:14:35.862Z,16.40
2019-02-16T12:17:12.629Z,18.97
2019-02-16T12:19:59.087Z,19.47
2019-02-16T12:22:35.496Z,16.40
2019-02-16T12:25:26.203Z,16.00
2019-02-16T12:28:05.750Z,19.73
2019-02-16T12:30:39.210Z,18.67
2019-02-16T12:33:25.626Z,17.57
2019-02-16T12:36:12.037Z,20.80
2019-02-16T12:39:04.854Z,22.10
2019-02-16T12:41:35.681Z,17.93
2019-02-16T12:44:06.643Z,17.00
2019-02-16T12:46:37.225Z,19.90
2019-02-16T12:49:19.792Z,17.90
2019-02-16T12:52:06.445Z,19.53
2019-02-16T12:54:46.927Z,20.50
2019-02-16T12:57:17.306Z,17.40
2019-02-16T12:59:50.555Z,19.13
2019-02-16T13:02:36.979Z,25.10
2019-02-16T13:05:24.553Z,17.73
2019-02-16T13:07:57.648Z,21.97
2019-02-16T13:10:34.146Z,18.20
2019-02-16T13:13:20.848Z,17.30
2019-02-16T13:16:06.257Z,21.07
2019-02-16T13:18:36.639Z,17.77
2019-02-16T13:21:13.251Z,19.90
2019-02-16T13:23:46.242Z,22.30
2019-02-16T13:26:19.305Z,21.90
2019-02-16T13:29:05.771Z,19.50
2019-02-16T13:31:41.943Z,23.33
2019-02-16T13:34:21.357Z,21.57
2019-02-16T13:37:07.684Z,20.68
2019-02-16T13:39:38.032Z,19.50
2019-02-16T13:42:23.544Z,19.07
2019-02-16T13:44:56.838Z,20.50
2019-02-16T13:47:30.348Z,18.10
2019-02-16T13:50:00.638Z,20.33
2019-02-16T13:52:42.840Z,20.70
2019-02-16T13:55:19.186Z,19.30
2019-02-16T13:57:55.598Z,25.90
2019-02-16T14:00:25.913Z,23.93
2019-02-16T14:03:12.586Z,27.20
2019-02-16T14:05:58.283Z,19.03
2019-02-16T14:08:40.622Z,20.15
2019-02-16T14:11:19.798Z,24.15
2019-02-16T14:14:02.057Z,24.17
2019-02-16T14:16:38.003Z,28.80
2019-02-16T14:19:06.733Z,23.33
2019-02-16T14:21:35.890Z,20.83
2019-02-16T14:24:05.414Z,22.23
2019-02-16T14:26:38.342Z,25.20
2019-02-16T14:29:08.271Z,22.30
2019-02-16T14:31:37.011Z,19.50
2019-02-16T14:34:05.744Z,19.67
2019-02-16T14:36:34.523Z,22.70
2019-02-16T14:39:08.492Z,22.70
2019-02-16T14:41:37.208Z,22.00
2019-02-16T14:44:05.960Z,21.97
2019-02-16T14:46:34.653Z,21.57
2019-02-16T14:49:03.331Z,25.47
2019-02-16T14:51:31.968Z,21.77
2019-02-16T14:54:00.529Z,24.60
2019-02-16T14:56:29.269Z,28.83
2019-02-16T14:58:58.128Z,25.23
2019-02-16T15:01:26.922Z,25.65
2019-02-16T15:03:56.057Z,17.40
2019-02-16T15:06:24.682Z,22.07
2019-02-16T15:08:53.968Z,22.97
2019-02-16T15:11:24.714Z,25.20
2019-02-16T15:13:53.440Z,22.37
2019-02-16T15:16:22.206Z,24.33
2019-02-16T15:18:51.755Z,22.07
2019-02-16T15:21:20.524Z,23.13
2019-02-16T15:23:49.301Z,22.87
2019-02-16T15:26:17.918Z,22.50
2019-02-16T15:28:46.566Z,20.57
2019-02-16T15:31:15.192Z,21.40
2019-02-16T15:33:43.973Z,20.30
2019-02-16T15:36:12.596Z,24.50
2019-02-16T15:38:43.955Z,31.37
2019-02-16T15:41:12.999Z,22.02
2019-02-16T15:43:41.794Z,29.80
2019-02-16T15:46:10.561Z,31.33
2019-02-16T15:48:39.215Z,24.73
2019-02-16T15:51:07.925Z,26.97
2019-02-16T15:53:36.609Z,22.57
2019-02-16T15:56:10.645Z,25.87
2019-02-16T15:58:35.539Z,25.07
2019-02-16T16:01:05.362Z,26.93
2019-02-16T16:03:34.065Z,26.80
2019-02-16T16:06:02.796Z,26.37
2019-02-16T16:08:33.134Z,27.73
2019-02-16T16:11:09.146Z,24.37
2019-02-16T16:13:48.426Z,24.33
2019-02-16T16:16:19.101Z,26.87
2019-02-16T16:18:49.314Z,22.20
2019-02-16T16:21:35.812Z,28.10
2019-02-16T16:24:06.926Z,30.15
2019-02-16T16:26:40.455Z,23.83
2019-02-16T16:29:25.683Z,24.00
2019-02-16T16:31:58.778Z,23.97
2019-02-16T16:34:40.918Z,26.60
2019-02-16T16:37:11.258Z,27.40
2019-02-16T16:39:53.616Z,26.42
2019-02-16T16:42:40.510Z,30.92
2019-02-16T16:45:13.850Z,29.32
2019-02-16T16:48:02.768Z,28.83
2019-02-16T16:50:36.090Z,29.33
2019-02-16T16:53:06.579Z,28.12
2019-02-16T16:55:37.264Z,27.30
2019-02-16T16:58:07.586Z,30.80
2019-02-16T17:00:38.002Z,29.37
2019-02-16T17:03:23.225Z,33.63
2019-02-16T17:06:02.381Z,29.52
2019-02-16T17:08:44.849Z,29.33
2019-02-16T17:11:34.701Z,35.30
2019-02-16T17:14:22.954Z,32.70
2019-02-16T17:20:00.894Z,33.42
2019-02-16T17:22:31.575Z,30.13
2019-02-16T17:25:02.358Z,32.53
2019-02-16T17:27:35.763Z,31.47
2019-02-16T17:30:16.610Z,30.90
2019-02-16T17:32:53.795Z,32.70
2019-02-16T17:35:24.143Z,33.30
2019-02-16T17:38:03.199Z,32.53
2019-02-16T17:40:42.624Z,32.77
2019-02-16T17:43:29.103Z,42.67
2019-02-16T17:46:02.494Z,33.02
2019-02-16T17:48:47.896Z,30.97
2019-02-16T17:51:33.121Z,35.30
2019-02-16T17:54:08.572Z,29.90
2019-02-16T17:56:54.738Z,32.33
2019-02-16T17:59:37.205Z,30.43
2019-02-16T18:02:13.998Z,31.07
2019-02-16T18:04:44.463Z,31.62
2019-02-16T18:07:30.176Z,35.63
2019-02-16T18:10:03.455Z,34.10
2019-02-16T18:12:34.199Z,37.67
2019-02-16T18:15:23.990Z,35.10
2019-02-16T18:17:57.831Z,37.73
2019-02-16T18:20:39.981Z,30.30
2019-02-16T18:23:13.007Z,41.50
2019-02-16T18:25:43.215Z,43.40
2019-02-16T18:28:16.632Z,38.10
2019-02-16T18:30:58.073Z,31.20
2019-02-16T18:33:28.447Z,40.50
2019-02-16T18:36:15.543Z,39.17
2019-02-16T18:38:45.855Z,28.10
2019-02-16T18:41:21.991Z,34.40
2019-02-16T18:44:08.683Z,32.93
2019-02-16T18:46:41.872Z,34.97
2019-02-16T18:49:30.013Z,31.50
2019-02-16T18:52:09.413Z,34.17
2019-02-16T18:54:39.956Z,35.17
2019-02-16T18:57:10.919Z,32.73
2019-02-16T18:59:58.485Z,40.47
2019-02-16T19:02:33.256Z,34.40
2019-02-16T19:05:04.069Z,36.97
2019-02-16T19:07:34.705Z,33.50
2019-02-16T19:10:13.217Z,31.48
2019-02-16T19:12:43.533Z,37.10
2019-02-16T19:15:16.600Z,34.30
2019-02-16T19:17:52.492Z,33.63
2019-02-16T19:20:28.725Z,34.47
2019-02-16T19:22:58.917Z,33.03
2019-02-16T19:25:30.410Z,39.33
2019-02-16T19:28:11.226Z,41.33
2019-02-16T19:30:51.451Z,31.73
2019-02-16T19:33:36.871Z,39.25
2019-02-16T19:36:19.555Z,34.73
2019-02-16T19:39:05.883Z,33.83
2019-02-16T19:41:39.447Z,33.53
2019-02-16T19:44:09.843Z,39.60
2019-02-16T19:46:44.134Z,41.20
2019-02-16T19:49:17.508Z,43.00
2019-02-16T19:51:48.001Z,40.20
2019-02-16T19:54:33.559Z,40.05
2019-02-16T19:57:04.193Z,43.60
2019-02-16T19:59:34.736Z,44.08
2019-02-16T20:02:05.290Z,33.50
2019-02-16T20:04:44.621Z,41.77
2019-02-16T20:07:20.749Z,46.10
2019-02-16T20:09:51.038Z,46.13
2019-02-16T20:12:24.539Z,40.90
2019-02-16T20:14:57.834Z,47.17
2019-02-16T20:17:28.288Z,44.23
2019-02-16T20:20:13.564Z,39.40
2019-02-16T20:22:43.888Z,37.17
2019-02-16T20:25:29.109Z,47.73
2019-02-16T20:28:17.625Z,38.00
2019-02-16T20:30:48.148Z,39.73
2019-02-16T20:33:33.651Z,35.85
2019-02-16T20:36:04.170Z,41.97
2019-02-16T20:38:40.394Z,37.77
2019-02-16T20:41:10.720Z,41.67
2019-02-16T20:43:57.223Z,39.30
2019-02-16T20:46:27.815Z,50.00
2019-02-16T20:48:58.895Z,40.20
2019-02-16T20:51:30.353Z,50.33
2019-02-16T20:54:04.004Z,49.93
2019-02-16T20:56:37.348Z,44.70
2019-02-16T20:59:19.879Z,43.23
2019-02-16T21:02:02.446Z,43.37
2019-02-16T21:04:35.788Z,40.07
2019-02-16T21:07:18.775Z,39.95
2019-02-16T21:10:03.848Z,51.58
2019-02-16T21:12:40.004Z,49.43
2019-02-16T21:15:10.298Z,48.78
2019-02-16T21:17:40.637Z,47.23
2019-02-16T21:20:29.219Z,46.85
2019-02-16T21:22:59.587Z,40.78
2019-02-16T21:25:32.661Z,47.47
2019-02-16T21:28:03.200Z,46.70
2019-02-16T21:30:42.641Z,47.97
2019-02-16T21:33:18.793Z,46.80
2019-02-16T21:36:01.131Z,44.87
2019-02-16T21:38:34.705Z,47.33
2019-02-16T21:41:05.027Z,44.30
2019-02-16T21:43:38.097Z,39.40
2019-02-16T21:46:14.578Z,39.07
2019-02-16T21:48:44.923Z,38.60
2019-02-16T21:51:33.614Z,49.33
2019-02-16T21:54:19.293Z,50.52
2019-02-16T21:56:49.612Z,50.05
2019-02-16T21:59:26.046Z,61.70
2019-02-16T22:02:08.591Z,54.80
2019-02-16T22:04:48.004Z,54.80
2019-02-16T22:07:20.994Z,58.55
2019-02-16T22:10:09.233Z,67.93
2019-02-16T22:12:57.612Z,50.47
2019-02-16T22:15:26.238Z,47.57
2019-02-16T22:17:55.084Z,40.83
2019-02-16T22:20:23.721Z,47.98
2019-02-16T22:22:52.425Z,53.80
2019-02-16T22:25:21.490Z,54.80
2019-02-16T22:27:50.310Z,62.07
2019-02-16T22:30:19.050Z,62.23
2019-02-16T22:32:47.859Z,49.00
2019-02-16T22:35:16.537Z,43.10
2019-02-16T22:37:45.165Z,51.40
2019-02-16T22:40:13.927Z,54.65
2019-02-16T22:42:42.620Z,47.87
2019-02-16T22:45:12.487Z,52.77
2019-02-16T22:47:41.222Z,46.00
2019-02-16T22:50:11.691Z,45.77
2019-02-16T22:52:40.307Z,35.20
2019-02-16T22:55:10.792Z,40.43
2019-02-16T22:57:39.551Z,36.40
2019-02-16T23:00:15.503Z,47.70
2019-02-16T23:02:44.278Z,35.97
2019-02-16T23:05:13.058Z,50.30
2019-02-16T23:07:41.845Z,39.37
2019-02-16T23:10:11.806Z,37.53
2019-02-16T23:12:40.533Z,44.00
2019-02-16T23:15:12.225Z,37.85
2019-02-16T23:17:40.974Z,46.57
2019-02-16T23:20:12.721Z,50.93
2019-02-16T23:22:41.482Z,46.00
2019-02-16T23:25:10.258Z,46.10
2019-02-16T23:27:39.132Z,40.17
2019-02-16T23:30:10.901Z,40.93
2019-02-16T23:32:39.705Z,57.67
2019-02-16T23:35:09.939Z,47.10
2019-02-16T23:37:38.789Z,48.60
2019-02-16T23:40:09.072Z,46.63
2019-02-16T23:42:37.779Z,48.70
2019-02-16T23:45:09.078Z,48.97
2019-02-16T23:47:37.789Z,40.47
2019-02-16T23:50:12.118Z,53.93
2019-02-16T23:52:40.893Z,55.60
2019-02-16T23:55:12.633Z,54.80
2019-02-16T23:57:41.309Z,47.17
